createdAt,value
2022-12-24T00:01:03.992Z,0.50
2022-12-24T00:03:30.493Z,0.40
2022-12-24T00:05:57.050Z,0.68
2022-12-24T00:08:23.448Z,0.93
2022-12-24T00:10:51.527Z,0.73
2022-12-24T00:13:18.328Z,0.88
2022-12-24T00:15:44.864Z,0.57
2022-12-24T00:18:11.311Z,0.60
2022-12-24T00:20:37.784Z,0.70
2022-12-24T00:23:04.336Z,0.63
2022-12-24T00:25:30.709Z,0.73
2022-12-24T00:27:57.106Z,0.90
2022-12-24T00:30:23.460Z,0.80
2022-12-24T00:32:49.847Z,0.80
2022-12-24T00:35:16.332Z,0.90
2022-12-24T00:37:42.736Z,1.00
2022-12-24T00:40:09.284Z,1.05
2022-12-24T00:42:35.697Z,0.80
2022-12-24T00:45:02.055Z,0.70
2022-12-24T00:47:28.489Z,1.00
2022-12-24T00:49:55.383Z,1.10
2022-12-24T00:52:21.878Z,0.90
2022-12-24T00:54:48.290Z,0.85
2022-12-24T00:57:14.660Z,1.20
2022-12-24T00:59:41.132Z,1.13
2022-12-24T01:02:07.708Z,1.00
2022-12-24T01:04:52.717Z,1.08
2022-12-24T01:07:19.197Z,1.50
2022-12-24T01:09:45.624Z,0.80
2022-12-24T01:12:11.989Z,0.93
2022-12-24T01:14:38.444Z,0.90
2022-12-24T01:17:04.883Z,0.93
2022-12-24T01:19:31.280Z,1.17
2022-12-24T01:21:58.300Z,1.02
2022-12-24T01:24:24.741Z,1.00
2022-12-24T01:26:51.189Z,1.00
2022-12-24T01:29:17.638Z,1.00
2022-12-24T01:31:44.060Z,0.85
2022-12-24T01:34:10.626Z,0.90
2022-12-24T01:36:37.251Z,1.10
2022-12-24T01:39:04.016Z,1.10
2022-12-24T01:41:49.375Z,1.17
2022-12-24T01:44:18.816Z,1.02
2022-12-24T01:49:13.290Z,1.13
2022-12-24T01:51:53.059Z,1.15
2022-12-24T01:54:31.168Z,0.88
2022-12-24T01:57:02.268Z,1.05
2022-12-24T01:59:29.373Z,0.95
2022-12-24T02:01:56.035Z,1.10
2022-12-24T02:04:34.916Z,0.90
2022-12-24T02:07:01.366Z,0.90
2022-12-24T02:09:28.248Z,1.25
2022-12-24T02:11:54.665Z,1.20
2022-12-24T02:14:21.451Z,1.00
2022-12-24T02:16:47.846Z,0.90
2022-12-24T02:19:14.197Z,1.00
2022-12-24T02:21:43.630Z,0.93
2022-12-24T02:24:32.631Z,1.30
2022-12-24T02:27:08.497Z,0.70
2022-12-24T02:29:53.723Z,0.82
2022-12-24T02:32:24.787Z,0.95
2022-12-24T02:34:54.234Z,1.23
2022-12-24T02:39:48.741Z,0.90
2022-12-24T02:42:18.803Z,1.40
2022-12-24T02:44:48.561Z,1.00
2022-12-24T02:47:16.989Z,1.20
2022-12-24T02:49:44.467Z,1.30
2022-12-24T02:52:29.792Z,0.88
2022-12-24T02:54:57.083Z,0.98
2022-12-24T02:57:39.654Z,0.90
2022-12-24T03:00:11.124Z,0.85
2022-12-24T03:02:46.751Z,0.93
2022-12-24T03:05:16.010Z,1.05
2022-12-24T03:07:52.122Z,1.10
2022-12-24T03:10:46.707Z,0.80
2022-12-24T03:13:17.854Z,0.90
2022-12-24T03:15:45.542Z,1.10
2022-12-24T03:18:14.085Z,1.10
2022-12-24T03:20:42.811Z,1.30
2022-12-24T03:23:09.293Z,0.80
2022-12-24T03:25:38.563Z,1.05
2022-12-24T03:28:06.294Z,0.90
2022-12-24T03:30:33.130Z,1.10
2022-12-24T03:32:59.822Z,1.08
2022-12-24T03:35:26.279Z,0.80
2022-12-24T03:37:53.053Z,0.90
2022-12-24T03:40:19.409Z,1.00
2022-12-24T03:42:45.786Z,1.08
2022-12-24T03:45:12.123Z,1.02
2022-12-24T03:47:38.600Z,0.88
2022-12-24T03:50:06.156Z,0.98
2022-12-24T03:52:32.563Z,0.95
2022-12-24T03:54:58.879Z,1.00
2022-12-24T03:57:25.688Z,0.85
2022-12-24T03:59:52.117Z,0.93
2022-12-24T04:02:18.661Z,0.82
2022-12-24T04:04:45.181Z,0.70
2022-12-24T04:07:11.519Z,0.90
2022-12-24T04:09:38.310Z,0.70
2022-12-24T04:12:04.952Z,0.90
2022-12-24T04:14:31.301Z,0.70
2022-12-24T04:16:57.783Z,0.75
2022-12-24T04:19:24.267Z,0.90
2022-12-24T04:21:50.733Z,0.90
2022-12-24T04:24:17.108Z,0.82
2022-12-24T04:26:43.543Z,0.90
2022-12-24T04:29:09.892Z,0.90
2022-12-24T04:31:36.367Z,0.70
2022-12-24T04:34:02.791Z,0.70
2022-12-24T04:36:29.567Z,1.10
2022-12-24T04:38:56.009Z,1.17
2022-12-24T04:41:24.778Z,0.75
2022-12-24T04:43:52.604Z,0.70
2022-12-24T04:46:20.574Z,0.80
2022-12-24T04:48:47.862Z,0.75
2022-12-24T04:51:14.946Z,0.65
2022-12-24T04:53:41.865Z,0.60
2022-12-24T04:56:10.577Z,0.90
2022-12-24T04:58:37.044Z,0.88
2022-12-24T05:01:07.975Z,1.00
2022-12-24T05:03:34.950Z,0.75
2022-12-24T05:06:05.318Z,0.80
2022-12-24T05:08:31.744Z,0.75
2022-12-24T05:10:58.924Z,0.70
2022-12-24T05:13:31.855Z,0.80
2022-12-24T05:16:03.090Z,0.75
2022-12-24T05:18:29.441Z,0.98
2022-12-24T05:20:55.828Z,0.82
2022-12-24T05:23:42.412Z,1.10
2022-12-24T05:26:22.340Z,1.00
2022-12-24T05:28:52.935Z,0.90
2022-12-24T05:31:19.788Z,1.00
2022-12-24T05:33:46.301Z,0.57
2022-12-24T05:36:12.960Z,0.70
2022-12-24T05:38:39.383Z,0.80
2022-12-24T05:41:06.123Z,0.70
2022-12-24T05:43:32.865Z,0.77
2022-12-24T05:46:00.212Z,0.70
2022-12-24T05:48:26.864Z,0.70
2022-12-24T05:50:54.065Z,0.88
2022-12-24T05:53:20.801Z,0.70
2022-12-24T05:55:47.519Z,0.80
2022-12-24T05:58:14.216Z,0.60
2022-12-24T06:00:40.654Z,0.90
2022-12-24T06:03:07.071Z,0.70
2022-12-24T06:05:34.147Z,0.80
2022-12-24T06:08:00.553Z,0.70
2022-12-24T06:10:26.966Z,0.80
2022-12-24T06:12:53.486Z,0.80
2022-12-24T06:15:23.901Z,0.80
2022-12-24T06:17:50.772Z,0.90
2022-12-24T06:20:17.293Z,0.70
2022-12-24T06:22:43.703Z,0.77
2022-12-24T06:25:10.110Z,0.90
2022-12-24T06:27:36.495Z,0.70
2022-12-24T06:30:02.890Z,0.80
2022-12-24T06:32:29.293Z,0.80
2022-12-24T06:34:55.743Z,0.80
2022-12-24T06:37:22.118Z,0.82
2022-12-24T06:39:48.557Z,1.00
2022-12-24T06:42:14.993Z,0.70
2022-12-24T06:44:41.387Z,0.75
2022-12-24T06:47:07.848Z,0.80
2022-12-24T06:49:34.293Z,1.00
2022-12-24T06:52:00.896Z,0.70
2022-12-24T06:54:27.325Z,1.20
2022-12-24T06:56:54.676Z,1.08
2022-12-24T06:59:23.470Z,0.90
2022-12-24T07:01:49.956Z,0.93
2022-12-24T07:04:20.295Z,0.80
2022-12-24T07:06:47.416Z,0.75
2022-12-24T07:09:14.542Z,1.42
2022-12-24T07:11:41.215Z,0.80
2022-12-24T07:14:07.626Z,0.88
2022-12-24T07:16:34.155Z,0.85
2022-12-24T07:19:00.720Z,1.00
2022-12-24T07:21:27.108Z,0.93
2022-12-24T07:23:53.459Z,0.95
2022-12-24T07:26:19.895Z,1.10
2022-12-24T07:28:46.317Z,1.00
2022-12-24T07:31:12.817Z,0.65
2022-12-24T07:33:39.293Z,0.90
2022-12-24T07:36:06.713Z,0.85
2022-12-24T07:38:34.018Z,1.35
2022-12-24T07:41:03.101Z,0.90
2022-12-24T07:43:29.473Z,0.85
2022-12-24T07:45:56.993Z,0.80
2022-12-24T07:48:23.740Z,0.93
2022-12-24T07:50:50.673Z,1.05
2022-12-24T07:53:17.182Z,0.98
2022-12-24T07:55:44.117Z,1.10
2022-12-24T07:58:10.530Z,0.93
2022-12-24T08:00:37.327Z,0.93
2022-12-24T08:03:04.343Z,0.98
2022-12-24T08:05:34.718Z,1.00
2022-12-24T08:08:01.056Z,1.55
2022-12-24T08:10:27.467Z,1.77
2022-12-24T08:12:53.797Z,1.83
2022-12-24T08:15:20.160Z,1.42
2022-12-24T08:17:46.519Z,1.50
2022-12-24T08:20:13.072Z,1.70
2022-12-24T08:22:39.578Z,1.27
2022-12-24T08:25:06.189Z,1.58
2022-12-24T08:27:32.537Z,1.50
2022-12-24T08:29:58.961Z,2.40
2022-12-24T08:32:25.387Z,1.90
2022-12-24T08:34:51.800Z,1.60
2022-12-24T08:37:18.155Z,2.00
2022-12-24T08:39:44.569Z,1.15
2022-12-24T08:42:10.989Z,1.10
2022-12-24T08:44:37.317Z,0.93
2022-12-24T08:47:03.758Z,1.20
2022-12-24T08:49:30.118Z,1.00
2022-12-24T08:51:56.560Z,1.08
2022-12-24T08:54:23.712Z,1.20
2022-12-24T08:56:50.113Z,1.30
2022-12-24T08:59:16.559Z,0.88
2022-12-24T09:01:43.256Z,1.00
2022-12-24T09:04:09.844Z,1.25
2022-12-24T09:06:36.666Z,1.00
2022-12-24T09:09:03.923Z,1.25
2022-12-24T09:11:30.522Z,1.50
2022-12-24T09:13:56.980Z,1.33
2022-12-24T09:16:23.462Z,1.17
2022-12-24T09:18:49.848Z,1.17
2022-12-24T09:21:17.586Z,1.00
2022-12-24T09:23:45.645Z,1.00
2022-12-24T09:26:14.482Z,1.40
2022-12-24T09:28:40.958Z,0.90
2022-12-24T09:31:07.562Z,1.20
2022-12-24T09:33:35.488Z,1.10
2022-12-24T09:36:02.263Z,1.33
2022-12-24T09:38:28.766Z,1.10
2022-12-24T09:40:55.587Z,1.23
2022-12-24T09:43:23.278Z,1.20
2022-12-24T09:45:49.808Z,1.38
2022-12-24T09:48:18.650Z,1.30
2022-12-24T09:51:06.742Z,1.40
2022-12-24T09:53:51.145Z,1.27
2022-12-24T09:56:19.345Z,1.00
2022-12-24T09:58:50.987Z,1.10
2022-12-24T10:01:18.189Z,1.38
2022-12-24T10:03:44.948Z,1.30
2022-12-24T10:06:17.942Z,1.20
2022-12-24T10:08:54.569Z,1.40
2022-12-24T10:11:35.731Z,1.50
2022-12-24T10:14:20.564Z,0.90
2022-12-24T10:17:16.581Z,1.23
2022-12-24T10:19:43.049Z,1.08
2022-12-24T10:22:18.284Z,1.25
2022-12-24T10:24:58.492Z,1.00
2022-12-24T10:27:28.278Z,1.02
2022-12-24T10:29:57.458Z,1.10
2022-12-24T10:32:28.415Z,1.23
2022-12-24T10:34:59.538Z,1.05
2022-12-24T10:37:28.972Z,1.10
2022-12-24T10:39:55.924Z,1.05
2022-12-24T10:42:24.958Z,1.23
2022-12-24T10:44:57.398Z,0.98
2022-12-24T10:47:24.539Z,1.30
2022-12-24T10:50:04.938Z,1.00
2022-12-24T10:52:35.593Z,1.10
2022-12-24T10:55:04.817Z,1.00
2022-12-24T10:57:31.283Z,1.40
2022-12-24T10:59:57.955Z,1.40
2022-12-24T11:02:32.194Z,1.20
2022-12-24T11:05:00.244Z,1.10
2022-12-24T11:07:27.659Z,1.23
2022-12-24T11:09:56.033Z,1.20
2022-12-24T11:12:23.460Z,1.15
2022-12-24T11:14:59.411Z,1.20
2022-12-24T11:17:26.020Z,1.00
2022-12-24T11:19:52.543Z,1.20
2022-12-24T11:22:18.871Z,1.20
2022-12-24T11:24:50.101Z,1.17
2022-12-24T11:27:22.996Z,1.20
2022-12-24T11:29:49.431Z,1.00
2022-12-24T11:32:22.665Z,1.08
2022-12-24T11:34:49.142Z,1.15
2022-12-24T11:37:20.449Z,1.10
2022-12-24T11:39:51.106Z,1.20
2022-12-24T11:42:26.755Z,1.30
2022-12-24T11:44:55.059Z,1.20
2022-12-24T11:47:32.095Z,0.90
2022-12-24T11:50:18.923Z,1.20
2022-12-24T11:52:47.165Z,1.10
2022-12-24T11:55:39.864Z,1.40
2022-12-24T11:58:24.987Z,1.40
2022-12-24T12:00:51.879Z,1.35
2022-12-24T12:03:25.910Z,1.10
2022-12-24T12:05:53.414Z,1.10
2022-12-24T12:08:20.943Z,1.33
2022-12-24T12:10:48.302Z,1.10
2022-12-24T12:13:17.828Z,1.20
2022-12-24T12:18:16.200Z,1.17
2022-12-24T12:20:46.731Z,1.35
2022-12-24T12:23:30.571Z,1.20
2022-12-24T12:26:23.486Z,1.38
2022-12-24T12:28:49.818Z,1.45
2022-12-24T12:31:36.630Z,1.23
2022-12-24T12:34:03.028Z,1.25
2022-12-24T12:36:52.516Z,1.30
2022-12-24T12:41:54.268Z,1.15
2022-12-24T12:44:29.911Z,1.27
2022-12-24T12:46:59.199Z,1.50
2022-12-24T12:49:28.397Z,1.55
2022-12-24T12:51:54.805Z,1.40
2022-12-24T12:54:36.041Z,1.50
2022-12-24T12:57:05.953Z,1.10
2022-12-24T12:59:32.280Z,1.67
2022-12-24T13:02:03.678Z,1.52
2022-12-24T13:04:43.831Z,1.55
2022-12-24T13:07:13.257Z,1.52
2022-12-24T13:09:48.731Z,1.40
2022-12-24T13:12:21.167Z,1.77
2022-12-24T13:15:06.362Z,1.73
2022-12-24T13:17:32.747Z,1.60
2022-12-24T13:20:05.313Z,1.73
2022-12-24T13:22:31.698Z,1.60
2022-12-24T13:24:58.224Z,1.45
2022-12-24T13:27:26.218Z,1.58
2022-12-24T13:29:54.790Z,1.88
2022-12-24T13:32:21.161Z,2.10
2022-12-24T13:34:49.263Z,1.90
2022-12-24T13:37:27.758Z,1.90
2022-12-24T13:40:06.415Z,1.60
2022-12-24T13:42:51.760Z,1.47
2022-12-24T13:45:41.478Z,1.50
2022-12-24T13:48:07.947Z,1.30
2022-12-24T13:50:41.819Z,1.60
2022-12-24T13:53:28.738Z,1.30
2022-12-24T13:55:56.381Z,1.50
2022-12-24T13:58:24.084Z,1.40
2022-12-24T14:00:54.023Z,1.67
2022-12-24T14:03:26.600Z,1.50
2022-12-24T14:06:01.165Z,1.60
2022-12-24T14:08:30.254Z,1.52
2022-12-24T14:11:04.995Z,1.70
2022-12-24T14:13:40.406Z,1.92
2022-12-24T14:16:14.870Z,2.47
2022-12-24T14:18:46.178Z,2.45
2022-12-24T14:21:23.615Z,2.15
2022-12-24T14:23:57.749Z,2.40
2022-12-24T14:26:25.420Z,2.53
2022-12-24T14:28:55.305Z,2.60
2022-12-24T14:31:21.707Z,2.50
2022-12-24T14:33:48.152Z,1.92
2022-12-24T14:36:16.054Z,2.55
2022-12-24T14:38:43.476Z,2.17
2022-12-24T14:41:28.034Z,2.15
2022-12-24T14:44:20.821Z,2.10
2022-12-24T14:47:02.457Z,2.28
2022-12-24T14:49:34.872Z,2.25
2022-12-24T14:52:54.159Z,2.10
2022-12-24T14:55:25.837Z,2.00
2022-12-24T14:58:12.256Z,1.90
2022-12-24T15:00:39.732Z,1.90
2022-12-24T15:03:12.441Z,1.73
2022-12-24T15:05:38.867Z,1.70
2022-12-24T15:08:10.120Z,2.08
2022-12-24T15:10:40.831Z,2.00
2022-12-24T15:13:09.236Z,1.92
2022-12-24T15:15:36.262Z,2.20
2022-12-24T15:18:03.328Z,2.15
2022-12-24T15:20:30.363Z,2.03
2022-12-24T15:22:58.597Z,2.25
2022-12-24T15:25:28.248Z,2.33
2022-12-24T15:27:54.624Z,2.08
2022-12-24T15:30:22.895Z,2.45
2022-12-24T15:32:56.325Z,2.17
2022-12-24T15:35:34.869Z,2.13
2022-12-24T15:38:06.554Z,2.17
2022-12-24T15:40:34.831Z,2.13
2022-12-24T15:43:01.357Z,2.15
2022-12-24T15:45:29.388Z,2.70
2022-12-24T15:47:57.603Z,2.28
2022-12-24T15:50:37.340Z,2.20
2022-12-24T15:53:19.359Z,2.40
2022-12-24T15:56:00.178Z,2.33
2022-12-24T15:58:27.721Z,2.28
2022-12-24T16:01:09.515Z,2.60
2022-12-24T16:03:37.973Z,2.03
2022-12-24T16:06:05.212Z,2.20
2022-12-24T16:08:33.205Z,2.30
2022-12-24T16:11:05.575Z,2.03
2022-12-24T16:13:33.880Z,2.22
2022-12-24T16:16:04.822Z,2.17
2022-12-24T16:18:35.509Z,2.28
2022-12-24T16:21:02.319Z,1.92
2022-12-24T16:23:38.244Z,2.05
2022-12-24T16:26:05.036Z,2.08
2022-12-24T16:28:32.056Z,1.98
2022-12-24T16:30:59.002Z,1.80
2022-12-24T16:33:25.491Z,2.03
2022-12-24T16:35:52.147Z,1.85
2022-12-24T16:38:18.954Z,1.73
2022-12-24T16:40:45.391Z,1.95
2022-12-24T16:43:30.620Z,2.08
2022-12-24T16:46:02.845Z,1.88
2022-12-24T16:48:30.114Z,2.00
2022-12-24T16:50:56.741Z,2.20
2022-12-24T16:53:23.618Z,2.42
2022-12-24T16:55:51.857Z,2.53
2022-12-24T16:58:18.925Z,2.30
2022-12-24T17:00:45.712Z,2.63
2022-12-24T17:03:12.576Z,2.22
2022-12-24T17:05:42.495Z,1.95
2022-12-24T17:08:09.277Z,2.20
2022-12-24T17:10:36.020Z,2.22
2022-12-24T17:13:02.752Z,1.90
2022-12-24T17:15:29.499Z,2.10
2022-12-24T17:17:56.032Z,1.63
2022-12-24T17:20:24.561Z,1.92
2022-12-24T17:22:51.355Z,1.75
2022-12-24T17:25:17.746Z,1.88
2022-12-24T17:27:44.222Z,1.63
2022-12-24T17:30:10.773Z,2.03
2022-12-24T17:32:37.605Z,1.48
2022-12-24T17:35:04.285Z,1.75
2022-12-24T17:37:30.755Z,1.98
2022-12-24T17:39:57.209Z,2.15
2022-12-24T17:42:23.731Z,1.75
2022-12-24T17:44:50.140Z,1.90
2022-12-24T17:47:16.490Z,1.98
2022-12-24T17:49:42.937Z,2.35
2022-12-24T17:52:09.334Z,2.10
2022-12-24T17:54:35.675Z,2.10
2022-12-24T17:57:02.104Z,2.60
2022-12-24T17:59:28.524Z,2.03
2022-12-24T18:01:55.088Z,2.10
2022-12-24T18:04:21.693Z,1.83
2022-12-24T18:06:49.745Z,1.83
2022-12-24T18:09:16.718Z,1.77
2022-12-24T18:11:43.376Z,2.03
2022-12-24T18:14:10.973Z,1.75
2022-12-24T18:16:38.523Z,2.08
2022-12-24T18:19:06.559Z,2.15
2022-12-24T18:21:33.096Z,2.22
2022-12-24T18:24:00.036Z,1.98
2022-12-24T18:26:27.782Z,1.88
2022-12-24T18:28:54.853Z,1.67
2022-12-24T18:31:21.915Z,1.70
2022-12-24T18:33:51.788Z,1.60
2022-12-24T18:36:18.679Z,1.40
2022-12-24T18:38:45.284Z,1.80
2022-12-24T18:41:15.957Z,1.90
2022-12-24T18:43:42.379Z,1.55
2022-12-24T18:46:10.152Z,1.70
2022-12-24T18:48:36.661Z,1.80
2022-12-24T18:51:03.221Z,2.15
2022-12-24T18:53:29.625Z,2.05
2022-12-24T18:55:56.010Z,2.20
2022-12-24T18:58:22.399Z,2.20
2022-12-24T19:00:48.861Z,2.63
2022-12-24T19:03:16.725Z,2.30
2022-12-24T19:05:43.117Z,2.30
2022-12-24T19:08:37.747Z,2.08
2022-12-24T19:10:55.935Z,2.40
2022-12-24T19:13:22.358Z,2.03
2022-12-24T19:15:48.785Z,2.00
2022-12-24T19:18:15.267Z,2.28
2022-12-24T19:20:41.785Z,2.30
2022-12-24T19:23:08.286Z,1.80
2022-12-24T19:25:35.243Z,1.50
2022-12-24T19:28:02.033Z,2.05
2022-12-24T19:30:28.456Z,1.60
2022-12-24T19:32:54.845Z,1.75
2022-12-24T19:35:21.236Z,1.50
2022-12-24T19:37:47.674Z,1.52
2022-12-24T19:40:14.111Z,1.58
2022-12-24T19:42:40.427Z,1.25
2022-12-24T19:45:07.018Z,1.48
2022-12-24T19:47:33.482Z,1.58
2022-12-24T19:49:59.873Z,1.60
2022-12-24T19:52:26.242Z,1.67
2022-12-24T19:54:52.685Z,1.40
2022-12-24T19:57:19.266Z,1.52
2022-12-24T19:59:45.618Z,1.77
2022-12-24T20:02:12.243Z,1.50
2022-12-24T20:04:38.804Z,1.30
2022-12-24T20:07:05.303Z,1.30
2022-12-24T20:09:33.718Z,1.20
2022-12-24T20:12:00.493Z,1.48
2022-12-24T20:14:27.569Z,1.52
2022-12-24T20:16:54.125Z,1.30
2022-12-24T20:19:21.232Z,1.58
2022-12-24T20:21:47.584Z,1.58
2022-12-24T20:24:14.016Z,1.35
2022-12-24T20:26:40.454Z,1.30
2022-12-24T20:29:08.552Z,1.42
2022-12-24T20:31:35.223Z,1.25
2022-12-24T20:34:02.249Z,1.95
2022-12-24T20:36:29.939Z,1.60
2022-12-24T20:38:56.999Z,1.60
2022-12-24T20:41:24.735Z,1.65
2022-12-24T20:43:51.155Z,1.17
2022-12-24T20:46:19.056Z,1.65
2022-12-24T20:48:45.867Z,1.40
2022-12-24T20:51:23.316Z,1.40
2022-12-24T20:53:51.962Z,1.60
2022-12-24T20:56:18.619Z,1.50
2022-12-24T20:58:45.318Z,1.55
2022-12-24T21:01:12.685Z,1.90
2022-12-24T21:03:39.276Z,1.55
2022-12-24T21:06:06.212Z,1.33
2022-12-24T21:08:32.725Z,1.50
2022-12-24T21:11:18.045Z,1.58
2022-12-24T21:13:44.427Z,1.80
2022-12-24T21:16:10.925Z,1.40
2022-12-24T21:18:37.352Z,1.40
2022-12-24T21:21:03.747Z,1.45
2022-12-24T21:23:30.330Z,1.40
2022-12-24T21:26:00.182Z,1.45
2022-12-24T21:28:26.658Z,1.50
2022-12-24T21:30:53.262Z,1.50
2022-12-24T21:33:19.991Z,1.50
2022-12-24T21:35:46.465Z,1.90
2022-12-24T21:38:12.960Z,1.42
2022-12-24T21:40:39.500Z,1.27
2022-12-24T21:43:07.529Z,1.67
2022-12-24T21:45:34.026Z,1.60
2022-12-24T21:48:20.927Z,1.73
2022-12-24T21:50:56.499Z,1.60
2022-12-24T21:53:41.672Z,1.55
2022-12-24T21:56:09.240Z,1.50
2022-12-24T21:58:35.600Z,1.63
2022-12-24T22:01:09.316Z,1.50
2022-12-24T22:03:36.244Z,1.90
2022-12-24T22:06:02.745Z,1.58
2022-12-24T22:08:47.919Z,1.55
2022-12-24T22:11:33.404Z,1.50
2022-12-24T22:14:00.021Z,1.42
2022-12-24T22:16:27.134Z,1.58
2022-12-24T22:18:54.120Z,2.10
2022-12-24T22:21:20.577Z,1.65
2022-12-24T22:23:47.037Z,1.70
2022-12-24T22:26:14.436Z,1.73
2022-12-24T22:28:40.949Z,1.48
2022-12-24T22:31:07.698Z,1.70
2022-12-24T22:33:36.192Z,1.80
2022-12-24T22:36:05.626Z,1.83
2022-12-24T22:38:32.137Z,1.70
2022-12-24T22:40:58.626Z,1.60
2022-12-24T22:43:25.216Z,1.50
2022-12-24T22:45:51.847Z,1.52
2022-12-24T22:48:18.480Z,1.48
2022-12-24T22:50:44.861Z,1.65
2022-12-24T22:53:11.195Z,1.67
2022-12-24T22:55:37.932Z,1.80
2022-12-24T22:58:04.477Z,1.50
2022-12-24T23:00:43.824Z,1.85
2022-12-24T23:03:11.148Z,1.85
2022-12-24T23:05:38.049Z,1.52
2022-12-24T23:08:05.812Z,1.90
2022-12-24T23:10:32.609Z,1.20
2022-12-24T23:13:17.980Z,1.38
2022-12-24T23:15:44.435Z,1.52
2022-12-24T23:18:10.919Z,1.65
2022-12-24T23:20:38.223Z,1.60
2022-12-24T23:23:04.700Z,1.30
2022-12-24T23:25:31.102Z,1.35
2022-12-24T23:27:57.552Z,1.38
2022-12-24T23:30:23.990Z,1.35
2022-12-24T23:32:50.389Z,1.42
2022-12-24T23:35:16.794Z,1.60
2022-12-24T23:37:43.197Z,1.40
2022-12-24T23:40:09.835Z,1.42
2022-12-24T23:42:36.239Z,1.40
2022-12-24T23:45:02.768Z,1.40
2022-12-24T23:47:29.161Z,2.08
2022-12-24T23:49:55.587Z,1.52
2022-12-24T23:52:21.992Z,1.70
2022-12-24T23:54:48.302Z,1.63
2022-12-24T23:57:14.759Z,1.48
2022-12-24T23:59:41.192Z,1.30
